Time;durP1;ratioP1;P1;durP2;ratioP2;P2;SDS_P1;SDS_P2;PMS_P1;PMS_P2;Temp;Humidity;BMP_temperature;BMP_pressure;BME280_temperature;BME280_humidity;BME280_pressure;Samples;Min_cycle;Max_cycle;Signal;HPM_P1;HPM_P2
2021/08/07 07:00:29;;;;;;;5.05;1.60;;;;;;;21.34;65.21;97841.66;5850016;23;21503;-76
2021/08/07 07:02:54;;;;;;;2.50;1.50;;;;;;;21.00;64.89;97837.13;4908802;29;20412;-76
2021/08/07 07:05:19;;;;;;;4.30;1.60;;;;;;;20.59;67.10;97848.09;4908776;29;20024;-76
2021/08/07 07:07:44;;;;;;;5.47;1.20;;;;;;;21.30;64.31;97841.88;4909308;29;20032;-76
2021/08/07 07:10:13;;;;;;;4.60;1.52;;;;;;;22.04;62.92;97828.19;4908984;29;20028;-76
2021/08/07 07:12:39;;;;;;;10.80;2.08;;;;;;;22.45;60.44;97813.50;4908766;29;20028;-78
2021/08/07 07:15:05;;;;;;;3.85;1.67;;;;;;;23.91;56.19;97807.31;4909102;29;20043;-78
2021/08/07 07:17:31;;;;;;;4.15;1.60;;;;;;;25.67;51.35;97815.06;4908749;29;20032;-75
2021/08/07 07:19:57;;;;;;;6.18;1.60;;;;;;;27.47;46.66;97831.00;4908635;29;20126;-75
2021/08/07 07:22:23;;;;;;;4.53;1.20;;;;;;;26.87;47.56;97831.69;4903097;29;20765;-75
2021/08/07 07:24:48;;;;;;;4.25;1.13;;;;;;;27.84;44.40;97836.00;4902695;29;20043;-76
2021/08/07 07:27:14;;;;;;;3.33;1.40;;;;;;;27.37;44.75;97839.09;4908533;29;20115;-76
2021/08/07 07:29:40;;;;;;;1.75;1.27;;;;;;;27.13;44.22;97837.91;4908526;29;20477;-75
2021/08/07 07:32:08;;;;;;;5.30;1.42;;;;;;;26.56;46.24;97842.72;4906763;29;20040;-75
2021/08/07 07:34:34;;;;;;;2.25;1.40;;;;;;;25.62;48.31;97855.28;4907145;29;20059;-76
2021/08/07 07:36:59;;;;;;;3.47;1.27;;;;;;;23.44;54.02;97859.84;4902419;29;20131;-75
2021/08/07 07:39:24;;;;;;;3.83;1.15;;;;;;;22.60;55.73;97867.69;4902524;29;20143;-76
2021/08/07 07:41:50;;;;;;;5.47;1.50;;;;;;;21.26;58.67;97869.38;4902113;29;20520;-76
2021/08/07 07:44:15;;;;;;;2.35;1.30;;;;;;;20.67;60.77;97872.06;4922604;29;20032;-76
2021/08/07 07:46:40;;;;;;;3.85;1.50;;;;;;;20.17;63.79;97867.84;4908183;29;20078;-75
2021/08/07 07:49:06;;;;;;;1.58;1.45;;;;;;;20.32;65.08;97850.09;4908123;29;20320;-75
2021/08/07 07:51:31;;;;;;;4.20;1.25;;;;;;;20.15;64.62;97848.69;4904551;29;20047;-75
2021/08/07 07:53:57;;;;;;;1.58;0.95;;;;;;;21.50;61.72;97835.06;4902316;29;20101;-75
2021/08/07 07:56:22;;;;;;;2.05;1.10;;;;;;;22.50;59.16;97835.09;4902237;29;20035;-75
2021/08/07 07:58:47;;;;;;;9.52;1.50;;;;;;;23.67;54.28;97842.88;4908044;29;20039;-76
2021/08/07 08:01:13;;;;;;;1.88;1.67;;;;;;;24.71;51.16;97832.81;4904329;29;20047;-76
2021/08/07 08:03:38;;;;;;;6.90;2.08;;;;;;;26.29;45.87;97837.41;4905262;29;20115;-76
2021/08/07 08:06:05;;;;;;;1.05;0.80;;;;;;;26.79;45.49;97840.44;4903682;29;20029;-76
2021/08/07 08:08:30;;;;;;;6.07;1.52;;;;;;;27.48;43.74;97835.31;4901998;29;20107;-76
2021/08/07 08:10:56;;;;;;;3.38;1.20;;;;;;;27.77;42.79;97835.84;4903881;29;21480;-75
2021/08/07 08:13:21;;;;;;;2.70;1.30;;;;;;;27.26;42.86;97826.84;4901792;29;20032;-76
2021/08/07 08:15:47;;;;;;;2.38;1.00;;;;;;;26.85;44.28;97823.88;4907766;29;20032;-76
2021/08/07 08:18:13;;;;;;;3.40;2.55;;;;;;;27.10;43.45;97816.09;4901576;29;20033;-76
2021/08/07 08:20:38;;;;;;;5.15;1.70;;;;;;;26.57;42.51;97806.34;4903287;29;20087;-76
2021/08/07 08:23:05;;;;;;;3.83;1.85;;;;;;;27.73;40.08;97797.19;4907449;29;20501;-76
2021/08/07 08:25:30;;;;;;;5.57;1.30;;;;;;;27.14;41.89;97780.22;4900248;29;20067;-77
2021/08/07 08:27:56;;;;;;;5.45;1.40;;;;;;;26.86;44.25;97776.84;4905666;29;20099;-77
2021/08/07 08:30:22;;;;;;;3.67;1.38;;;;;;;25.93;45.24;97773.63;4905136;29;20032;-78
2021/08/07 08:32:47;;;;;;;2.53;1.02;;;;;;;25.51;46.12;97781.19;4903302;29;20091;-78
2021/08/07 08:35:13;;;;;;;1.83;1.15;;;;;;;24.34;49.17;97793.75;4906221;29;20036;-75
2021/08/07 08:37:38;;;;;;;3.58;1.10;;;;;;;24.25;49.98;97790.09;4904266;29;20076;-75
2021/08/07 08:40:06;;;;;;;3.75;1.20;;;;;;;24.40;49.31;97787.09;4901476;29;20113;-75
2021/08/07 08:42:31;;;;;;;2.42;1.00;;;;;;;25.15;46.45;97778.41;4907014;29;20028;-75
2021/08/07 08:44:56;;;;;;;2.40;1.00;;;;;;;25.07;50.11;97775.63;4907411;29;20405;-75
2021/08/07 08:47:23;;;;;;;1.58;0.93;;;;;;;25.57;45.90;97772.66;4907353;29;20036;-75
2021/08/07 08:49:52;;;;;;;3.42;1.00;;;;;;;24.69;47.33;97772.03;4902055;29;20504;-76
2021/08/07 08:52:22;;;;;;;3.13;1.23;;;;;;;25.87;44.73;97759.13;4901807;29;20543;-75
2021/08/07 08:54:47;;;;;;;;;;;;;;;25.40;45.25;97766.31;4906304;29;21373;-76
2021/08/07 08:57:12;;;;;;;4.27;1.37;;;;;;;25.71;47.02;97753.59;4897135;29;19919;-76
2021/08/07 08:59:38;;;;;;;3.22;1.05;;;;;;;25.63;46.73;97762.31;4891588;29;20710;-76
2021/08/07 09:02:03;;;;;;;3.45;1.20;;;;;;;25.55;47.33;97764.00;4900311;29;20472;-76
2021/08/07 09:04:29;;;;;;;2.70;1.27;;;;;;;25.30;46.68;97771.66;4903986;29;20056;-76
2021/08/07 09:06:54;;;;;;;2.65;1.23;;;;;;;24.93;47.46;97768.09;4903292;29;20045;-76
2021/08/07 09:09:37;;;;;;;2.03;1.30;;;;;;;24.72;49.54;97761.16;4903676;29;20115;-76
2021/08/07 09:12:04;;;;;;;3.30;1.13;;;;;;;24.20;49.18;97763.22;4903477;29;22144;-76
2021/08/07 09:14:32;;;;;;;4.20;1.38;;;;;;;24.21;50.39;97756.94;4903644;29;20060;-76
2021/08/07 09:16:57;;;;;;;4.10;1.15;;;;;;;23.79;50.50;97754.53;4902577;29;20854;-76
2021/08/07 09:19:23;;;;;;;6.63;1.30;;;;;;;23.54;51.19;97749.66;4904249;29;20040;-76
2021/08/07 09:22:13;;;;;;;1.88;1.33;;;;;;;24.02;50.65;97746.31;4904267;29;20879;-76
2021/08/07 09:24:54;;;;;;;4.20;1.27;;;;;;;23.84;53.40;97749.66;4897787;29;20131;-76
2021/08/07 09:27:39;;;;;;;2.90;1.20;;;;;;;23.57;52.29;97747.59;4911117;29;20035;-76
2021/08/07 09:30:29;;;;;;;6.25;1.40;;;;;;;24.50;49.54;97751.69;4909759;29;20489;-76
2021/08/07 09:32:59;;;;;;;4.97;1.10;;;;;;;24.85;48.42;97756.41;4908835;29;20070;-76
2021/08/07 09:35:54;;;;;;;2.95;1.20;;;;;;;24.40;49.64;97755.31;4913048;29;20031;-76
2021/08/07 09:38:24;;;;;;;4.60;1.30;;;;;;;24.14;51.58;97749.69;4896280;29;20043;-76
2021/08/07 09:41:01;;;;;;;3.08;1.33;;;;;;;24.40;49.22;97750.84;4909608;29;20036;-76
2021/08/07 09:43:28;;;;;;;3.08;1.10;;;;;;;24.53;50.82;97761.16;4912056;29;20036;-76
2021/08/07 09:46:08;;;;;;;2.55;1.10;;;;;;;24.55;49.60;97764.50;4908237;29;20032;-76
2021/08/07 09:48:35;;;;;;;49.38;31.38;;;;;;;24.40;49.76;97765.91;4910638;29;20080;-76
2021/08/07 09:51:13;;;;;;;5.72;3.67;;;;;;;24.15;50.61;97768.09;4910211;29;20120;-76
2021/08/07 09:53:39;;;;;;;5.23;2.03;;;;;;;23.53;53.38;97769.16;4912429;29;20034;-76
2021/08/07 09:56:07;;;;;;;4.03;1.90;;;;;;;23.77;52.79;97774.97;4912812;29;20032;-76
2021/08/07 09:58:33;;;;;;;3.60;1.90;;;;;;;23.62;53.73;97778.09;4906872;29;20031;-76
2021/08/07 10:00:59;;;;;;;3.92;1.80;;;;;;;23.32;54.07;97783.25;4912476;29;20127;-76
2021/08/07 10:03:29;;;;;;;4.07;1.40;;;;;;;22.89;55.44;97794.00;4909708;29;20038;-76
2021/08/07 10:05:55;;;;;;;2.90;1.40;;;;;;;22.58;56.81;97808.91;4911016;29;20119;-76
2021/08/07 10:08:20;;;;;;;5.00;2.92;;;;;;;22.64;56.89;97810.19;4909536;29;20034;-76
2021/08/07 10:10:49;;;;;;;2.15;1.58;;;;;;;22.14;59.03;97838.88;4910923;29;20409;-76
2021/08/07 10:13:16;;;;;;;7.03;1.73;;;;;;;21.78;60.22;97843.47;4905288;29;20095;-76
2021/08/07 10:15:42;;;;;;;2.28;1.48;;;;;;;21.48;63.15;97851.97;4902000;29;20143;-76
2021/08/07 10:18:09;;;;;;;21.25;13.43;;;;;;;21.30;63.79;97849.78;4899195;29;20640;-76
2021/08/07 10:20:37;;;;;;;2.42;1.85;;;;;;;21.17;64.64;97838.47;4898545;29;20507;-73
2021/08/07 10:23:03;;;;;;;5.75;2.22;;;;;;;20.93;67.79;97835.06;4900283;29;20028;-76
2021/08/07 10:25:29;;;;;;;6.55;2.10;;;;;;;20.49;69.14;97826.88;4898231;29;20477;-75
2021/08/07 10:27:58;;;;;;;7.90;3.70;;;;;;;20.72;69.60;97827.81;4895841;29;20082;-75
2021/08/07 10:30:24;;;;;;;7.57;2.53;;;;;;;20.54;69.30;97823.91;4897702;29;20142;-75
2021/08/07 10:32:53;;;;;;;7.10;1.90;;;;;;;20.25;72.15;97833.91;4896566;29;20445;-75
2021/08/07 10:35:19;;;;;;;;;;;;;;;20.06;74.44;97829.13;4898084;29;20047;-75
2021/08/07 10:37:44;;;;;;;3.95;2.00;;;;;;;19.72;75.94;97804.41;4897209;29;19919;-75
2021/08/07 10:40:12;;;;;;;9.77;2.30;;;;;;;19.70;74.23;97799.25;4897345;29;20039;-75
2021/08/07 10:42:38;;;;;;;9.20;2.55;;;;;;;19.70;75.46;97796.63;4897067;29;20032;-75
2021/08/07 10:45:07;;;;;;;3.28;1.98;;;;;;;19.80;76.73;97790.72;4916827;29;20040;-75
2021/08/07 10:47:33;;;;;;;;;;;;;;;19.35;76.81;97790.38;4909584;29;20469;-76
2021/08/07 10:49:59;;;;;;;12.30;3.53;;;;;;;19.33;78.82;97792.25;4909153;29;19923;-75
2021/08/07 10:52:27;;;;;;;9.52;4.20;;;;;;;19.32;80.77;97807.16;4903584;29;20083;-75
2021/08/07 10:54:54;;;;;;;9.60;5.60;;;;;;;19.16;79.41;97802.13;4908098;29;20607;-75
2021/08/07 10:57:39;;;;;;;9.23;2.45;;;;;;;18.98;82.09;97806.84;4899594;29;20031;-75
2021/08/07 11:00:16;;;;;;;6.80;2.38;;;;;;;18.84;79.83;97801.69;4900520;29;20038;-75
2021/08/07 11:02:44;;;;;;;6.57;2.13;;;;;;;18.75;79.44;97782.13;4900216;29;20043;-75
2021/08/07 11:05:10;;;;;;;5.43;2.10;;;;;;;18.84;82.35;97792.97;4899585;29;20494;-75
2021/08/07 11:07:36;;;;;;;3.35;1.80;;;;;;;18.90;81.89;97792.53;4900240;29;20023;-75
2021/08/07 11:10:06;;;;;;;8.63;2.50;;;;;;;18.96;83.34;97790.38;4900135;29;20051;-75
2021/08/07 11:12:32;;;;;;;8.55;3.03;;;;;;;18.95;83.23;97799.19;4899729;29;20024;-75
2021/08/07 11:15:05;;;;;;;5.22;3.05;;;;;;;18.79;84.20;97798.53;4899231;29;20508;-75
2021/08/07 11:17:36;;;;;;;8.65;2.75;;;;;;;18.61;83.96;97811.03;4899714;29;20484;-75
2021/08/07 11:20:07;;;;;;;6.47;2.22;;;;;;;18.50;84.92;97826.66;4898704;29;20529;-75
2021/08/07 11:22:41;;;;;;;4.18;1.98;;;;;;;18.43;84.20;97825.41;4898065;29;20037;-75
2021/08/07 11:25:14;;;;;;;5.38;2.03;;;;;;;18.35;84.50;97832.91;4901070;29;20083;-76
2021/08/07 11:28:01;;;;;;;5.63;2.33;;;;;;;18.29;84.39;97835.94;4907479;29;20032;-75
2021/08/07 11:30:41;;;;;;;7.47;3.20;;;;;;;18.31;84.97;97845.38;4907853;29;20095;-76
2021/08/07 11:33:09;;;;;;;5.03;2.58;;;;;;;18.16;86.75;97852.44;4906600;29;20024;-76
2021/08/07 11:35:35;;;;;;;7.60;2.83;;;;;;;17.99;89.57;97855.31;4905805;29;20032;-80
2021/08/07 11:38:06;;;;;;;4.63;2.22;;;;;;;17.84;88.40;97851.88;4903053;29;20028;-73
2021/08/07 11:40:59;;;;;;;4.75;2.60;;;;;;;17.82;88.69;97858.13;4907239;29;20047;-69
2021/08/07 11:43:35;;;;;;;6.95;2.20;;;;;;;17.76;87.31;97858.50;4905941;29;20055;-69
2021/08/07 11:46:13;;;;;;;4.63;2.40;;;;;;;17.77;87.56;97854.94;4902116;29;20095;-69
2021/08/07 11:48:43;;;;;;;5.60;2.30;;;;;;;17.83;87.06;97859.81;4902252;29;20490;-70
2021/08/07 11:51:14;;;;;;;3.97;2.20;;;;;;;17.83;87.66;97859.81;4903497;29;20134;-69
2021/08/07 11:53:41;;;;;;;3.83;2.15;;;;;;;17.90;87.26;97861.97;4906984;29;20039;-69
2021/08/07 11:56:15;;;;;;;6.50;2.40;;;;;;;18.01;86.49;97857.81;4908165;29;20066;-69
2021/08/07 11:58:49;;;;;;;4.50;2.15;;;;;;;18.01;85.20;97852.56;4922150;29;20028;-75
2021/08/07 12:01:15;;;;;;;4.35;2.20;;;;;;;18.08;88.62;97849.44;4906666;29;20418;-76
2021/08/07 12:03:46;;;;;;;10.52;7.63;;;;;;;18.04;91.00;97853.22;4901550;29;20246;-77
2021/08/07 12:06:13;;;;;;;4.57;2.20;;;;;;;18.38;90.08;97856.31;4900467;29;20047;-73
2021/08/07 12:08:39;;;;;;;5.38;2.30;;;;;;;18.45;87.57;97847.94;4900860;29;20021;-73
2021/08/07 12:11:10;;;;;;;4.85;1.98;;;;;;;18.62;85.87;97853.91;4898955;29;20087;-73
2021/08/07 12:13:41;;;;;;;5.38;1.88;;;;;;;18.73;87.27;97847.03;4899139;29;20024;-73
2021/08/07 12:16:12;;;;;;;3.08;2.08;;;;;;;18.92;86.07;97843.19;4899885;29;20043;-73
2021/08/07 12:18:51;;;;;;;3.83;1.55;;;;;;;18.86;82.23;97833.94;4900016;29;20470;-73
2021/08/07 12:21:23;;;;;;;4.35;2.00;;;;;;;18.72;84.50;97837.47;4899698;29;20036;-73
2021/08/07 12:23:51;;;;;;;21.10;14.77;;;;;;;18.87;83.42;97837.41;4895905;29;20123;-73
2021/08/07 12:26:18;;;;;;;3.67;1.98;;;;;;;18.71;80.94;97827.06;4896702;29;20099;-73
2021/08/07 12:28:44;;;;;;;8.07;1.98;;;;;;;19.00;82.29;97822.47;4896832;29;20068;-73
2021/08/07 12:31:10;;;;;;;5.80;1.85;;;;;;;18.65;78.86;97823.03;4897261;29;20408;-73
2021/08/07 12:33:38;;;;;;;6.72;2.10;;;;;;;18.56;82.73;97828.88;4899725;29;20028;-73
2021/08/07 12:36:12;;;;;;;2.92;2.03;;;;;;;18.69;84.81;97829.78;4904177;29;20429;-73
2021/08/07 12:38:46;;;;;;;4.93;2.38;;;;;;;18.74;82.45;97838.19;4907040;29;20143;-73
2021/08/07 12:41:17;;;;;;;8.23;2.17;;;;;;;18.66;83.65;97847.47;4905554;29;20028;-73
2021/08/07 12:43:43;;;;;;;4.70;2.22;;;;;;;18.56;84.71;97849.03;4906005;29;20032;-74
2021/08/07 12:46:11;;;;;;;5.60;1.80;;;;;;;18.42;83.70;97852.53;4906097;29;20028;-74
2021/08/07 12:48:45;;;;;;;7.80;2.83;;;;;;;18.46;85.39;97843.53;4904610;29;20024;-74
2021/08/07 12:51:10;;;;;;;5.47;2.30;;;;;;;18.63;85.40;97851.16;4905751;29;20039;-74
2021/08/07 12:53:41;;;;;;;2.78;1.70;;;;;;;18.61;83.54;97862.69;4905666;29;20036;-74
2021/08/07 12:56:06;;;;;;;5.25;1.70;;;;;;;18.27;83.74;97854.38;4898118;29;20577;-74
2021/08/07 12:58:32;;;;;;;4.57;1.60;;;;;;;18.23;85.96;97859.00;4899659;29;20040;-74
2021/08/07 13:01:12;;;;;;;4.00;2.10;;;;;;;18.14;83.81;97854.34;4898219;29;20151;-74
2021/08/07 13:04:00;;;;;;;8.07;2.10;;;;;;;17.98;84.86;97870.16;4898118;29;20147;-74
2021/08/07 13:06:27;;;;;;;40.83;27.65;;;;;;;18.04;85.46;97866.34;4889926;29;20043;-74
2021/08/07 13:08:53;;;;;;;5.95;2.95;;;;;;;17.92;86.10;97870.56;4898337;29;20111;-74
2021/08/07 13:11:21;;;;;;;3.97;2.28;;;;;;;18.11;87.10;97865.00;4897453;29;20028;-74
2021/08/07 13:13:55;;;;;;;3.10;1.98;;;;;;;18.16;87.48;97869.94;4898732;29;20373;-76
2021/08/07 13:16:45;;;;;;;3.55;1.95;;;;;;;18.16;86.91;97865.53;4896007;29;20490;-75
2021/08/07 13:19:14;;;;;;;3.90;2.17;;;;;;;18.34;88.28;97862.72;4897192;29;20029;-75
2021/08/07 13:21:39;;;;;;;6.68;2.13;;;;;;;18.26;87.41;97862.34;4896019;29;20175;-75
2021/08/07 13:24:27;;;;;;;4.55;1.65;;;;;;;18.35;84.71;97877.50;4897987;29;20502;-75
2021/08/07 13:26:53;;;;;;;5.43;1.83;;;;;;;18.11;86.78;97885.97;4904649;29;20405;-75
2021/08/07 13:29:20;;;;;;;3.72;2.25;;;;;;;17.96;88.04;97900.03;4906675;29;20028;-75
2021/08/07 13:31:46;;;;;;;4.03;2.25;;;;;;;17.81;89.68;97899.22;4903679;29;20032;-75
2021/08/07 13:34:11;;;;;;;5.50;2.47;;;;;;;17.63;90.31;97903.75;4906457;29;20402;-75
2021/08/07 13:36:37;;;;;;;8.85;4.07;;;;;;;17.53;90.63;97900.00;4900894;29;20043;-75
2021/08/07 13:39:02;;;;;;;10.10;4.57;;;;;;;17.37;91.24;97899.25;4899526;29;20055;-75
2021/08/07 13:41:27;;;;;;;6.72;3.67;;;;;;;17.29;92.10;97904.09;4905490;29;20093;-76
2021/08/07 13:43:53;;;;;;;4.53;2.88;;;;;;;17.29;93.90;97911.94;4906637;29;20063;-75
2021/08/07 13:46:18;;;;;;;33.03;17.83;;;;;;;17.33;91.39;97905.59;4905935;29;20032;-75
2021/08/07 13:48:43;;;;;;;5.57;3.22;;;;;;;17.13;92.47;97912.03;4908948;29;20032;-75
2021/08/07 13:51:08;;;;;;;3.83;2.70;;;;;;;17.09;92.60;97911.34;4907450;29;20502;-75
2021/08/07 13:53:34;;;;;;;6.22;2.80;;;;;;;16.96;94.42;97919.06;4907018;29;20039;-75
2021/08/07 13:56:00;;;;;;;7.18;2.97;;;;;;;16.87;96.35;97916.13;4910065;29;20352;-75
2021/08/07 13:58:25;;;;;;;5.50;2.10;;;;;;;16.83;95.34;97904.19;4909933;29;20028;-75
2021/08/07 14:00:50;;;;;;;7.68;3.90;;;;;;;16.77;95.28;97899.28;4908038;29;20044;-75
2021/08/07 14:03:16;;;;;;;6.03;2.60;;;;;;;16.76;96.16;97892.34;4907913;29;20036;-75
2021/08/07 14:05:42;;;;;;;6.85;2.40;;;;;;;16.68;94.95;97888.38;4906258;29;20923;-75
2021/08/07 14:08:07;;;;;;;3.72;1.58;;;;;;;16.39;92.50;97889.16;4908363;29;20031;-75
2021/08/07 14:10:36;;;;;;;3.95;1.90;;;;;;;16.43;93.76;97880.22;4897684;29;20838;-75
2021/08/07 14:13:01;;;;;;;3.22;1.80;;;;;;;16.14;93.71;97864.38;4896745;29;20741;-75
2021/08/07 14:15:27;;;;;;;4.18;1.70;;;;;;;15.99;94.68;97860.00;4893124;29;20159;-76
2021/08/07 14:17:52;;;;;;;2.67;1.88;;;;;;;16.11;97.07;97864.56;4889650;29;20029;-82
2021/08/07 14:20:17;;;;;;;2.38;1.80;;;;;;;16.27;97.33;97868.94;4891217;29;20040;-81
2021/08/07 14:22:43;;;;;;;3.45;1.70;;;;;;;16.14;94.29;97880.06;4890772;29;20032;-80
2021/08/07 14:25:08;;;;;;;2.35;1.38;;;;;;;16.01;90.91;97873.00;4889552;29;20071;-80
2021/08/07 14:27:34;;;;;;;2.90;1.50;;;;;;;15.99;90.79;97867.84;4889687;29;20114;-81
2021/08/07 14:29:59;;;;;;;1.83;1.60;;;;;;;15.93;96.42;97871.63;4890054;29;20027;-78
2021/08/07 14:32:24;;;;;;;2.00;1.67;;;;;;;15.98;97.47;97879.22;4888966;29;20552;-82
2021/08/07 14:34:50;;;;;;;3.08;1.75;;;;;;;15.96;98.67;97875.88;4888453;29;20916;-80
2021/08/07 14:37:15;;;;;;;81.55;50.17;;;;;;;16.13;96.28;97867.94;4888946;29;20032;-81
2021/08/07 14:39:42;;;;;;;7.90;3.08;;;;;;;16.14;95.15;97869.59;4894856;29;20030;-78
2021/08/07 14:42:07;;;;;;;3.67;1.73;;;;;;;16.14;96.46;97864.38;4898613;29;20490;-79
2021/08/07 14:44:33;;;;;;;6.30;1.63;;;;;;;15.85;97.68;97870.34;4900281;29;20039;-79
2021/08/07 14:46:58;;;;;;;5.65;2.42;;;;;;;15.97;98.40;97856.63;4907652;29;21029;-80
2021/08/07 14:49:24;;;;;;;3.13;1.60;;;;;;;15.90;98.87;97855.28;4905513;29;20028;-77
2021/08/07 14:51:50;;;;;;;7.03;2.30;;;;;;;15.76;100.00;97868.22;4903540;29;20028;-78
2021/08/07 14:54:16;;;;;;;7.72;2.60;;;;;;;15.92;100.00;97875.19;4906184;29;20167;-81
2021/08/07 14:56:41;;;;;;;3.38;2.00;;;;;;;15.93;97.90;97865.56;4909124;29;20181;-77
2021/08/07 14:59:07;;;;;;;3.75;1.77;;;;;;;15.80;96.19;97856.69;4906977;29;20118;-77
2021/08/07 15:01:32;;;;;;;4.57;2.40;;;;;;;15.80;100.00;97865.38;4906064;29;20107;-81
2021/08/07 15:03:57;;;;;;;4.53;2.35;;;;;;;15.61;97.90;97865.47;4905813;29;20040;-74
2021/08/07 15:06:23;;;;;;;4.25;1.80;;;;;;;15.64;100.00;97870.59;4905070;29;20542;-80
2021/08/07 15:08:48;;;;;;;3.50;2.33;;;;;;;15.54;100.00;97865.91;4903139;29;20079;-76
2021/08/07 15:11:14;;;;;;;11.27;7.60;;;;;;;15.48;100.00;97874.91;4904838;29;20077;-78
2021/08/07 15:13:39;;;;;;;17.33;2.22;;;;;;;15.50;100.00;97867.81;4906016;29;20508;-74
2021/08/07 15:16:06;;;;;;;3.10;2.58;;;;;;;15.46;99.56;97881.97;4904648;29;20024;-78
2021/08/07 15:18:32;;;;;;;7.03;2.10;;;;;;;15.50;100.00;97883.50;4902655;29;20025;-76
2021/08/07 15:20:57;;;;;;;2.15;1.85;;;;;;;15.43;100.00;97866.47;4906949;29;20036;-79
2021/08/07 15:23:22;;;;;;;8.85;2.47;;;;;;;15.46;100.00;97866.28;4908385;29;20032;-80
2021/08/07 15:25:48;;;;;;;3.70;2.20;;;;;;;15.48;100.00;97859.25;4905525;29;20166;-77
2021/08/07 15:28:13;;;;;;;7.53;2.50;;;;;;;15.44;100.00;97862.94;4904162;29;20051;-82
2021/08/07 15:30:38;;;;;;;3.38;2.40;;;;;;;15.65;100.00;97859.22;4905810;29;20035;-77
2021/08/07 15:33:04;;;;;;;2.65;2.20;;;;;;;15.74;100.00;97864.88;4904804;29;20167;-75
2021/08/07 15:35:30;;;;;;;7.53;3.83;;;;;;;15.66;100.00;97868.75;4903500;29;20052;-77
2021/08/07 15:37:55;;;;;;;6.05;3.65;;;;;;;15.80;100.00;97848.88;4902413;29;20062;-75
2021/08/07 15:40:21;;;;;;;5.63;2.40;;;;;;;15.74;99.82;97855.28;4904580;29;20044;-76
2021/08/07 15:42:47;;;;;;;3.58;2.58;;;;;;;15.74;99.32;97875.31;4902259;29;20155;-77
2021/08/07 15:45:12;;;;;;;3.83;2.30;;;;;;;15.84;100.00;97887.81;4908109;29;20076;-77
2021/08/07 15:47:38;;;;;;;4.05;1.98;;;;;;;15.85;100.00;97865.13;4908013;29;20489;-71
2021/08/07 15:50:04;;;;;;;5.28;1.90;;;;;;;15.98;100.00;97837.41;4903565;29;20039;-75
2021/08/07 15:52:30;;;;;;;3.47;2.03;;;;;;;15.81;100.00;97845.31;4902019;29;20128;-73
2021/08/07 15:54:55;;;;;;;2.63;1.60;;;;;;;15.81;97.47;97845.31;4903672;29;20476;-71
2021/08/07 15:57:20;;;;;;;2.92;1.75;;;;;;;15.84;99.73;97834.72;4898030;29;20478;-74
2021/08/07 15:59:46;;;;;;;3.28;1.90;;;;;;;15.84;99.59;97830.34;4893535;29;20028;-75
2021/08/07 16:02:12;;;;;;;3.17;1.85;;;;;;;15.88;96.57;97821.41;4889371;29;20502;-69
2021/08/07 16:04:38;;;;;;;3.65;1.58;;;;;;;15.83;96.48;97822.59;4885757;29;20039;-73
2021/08/07 16:07:04;;;;;;;1.80;1.70;;;;;;;15.88;96.70;97825.78;4888337;29;20035;-72
2021/08/07 16:09:29;;;;;;;2.45;1.73;;;;;;;15.87;98.52;97838.00;4888492;29;20115;-73
2021/08/07 16:11:55;;;;;;;3.95;1.85;;;;;;;15.88;97.70;97851.91;4886306;29;20509;-72
2021/08/07 16:14:20;;;;;;;4.55;1.90;;;;;;;16.00;98.38;97861.69;4888207;29;20040;-74
2021/08/07 16:16:47;;;;;;;2.97;1.90;;;;;;;16.01;96.90;97855.56;4885553;29;20112;-73
2021/08/07 16:19:12;;;;;;;6.15;1.90;;;;;;;16.23;97.46;97859.59;4887011;29;20028;-73
2021/08/07 16:21:37;;;;;;;3.90;1.95;;;;;;;16.12;96.64;97863.63;4886579;29;20067;-76
2021/08/07 16:24:03;;;;;;;2.92;1.63;;;;;;;16.15;95.47;97834.72;4890502;29;21754;-76
2021/08/07 16:26:29;;;;;;;3.88;1.80;;;;;;;16.28;97.12;97819.19;4891288;29;20040;-75
2021/08/07 16:28:55;;;;;;;3.78;1.77;;;;;;;16.36;95.16;97810.91;4896467;29;20632;-77
2021/08/07 16:31:21;;;;;;;4.97;2.65;;;;;;;16.62;95.35;97822.50;4892914;29;20051;-73
2021/08/07 16:33:47;;;;;;;6.93;5.05;;;;;;;16.66;95.20;97824.84;4901818;29;20035;-76
2021/08/07 16:36:13;;;;;;;5.22;2.97;;;;;;;16.39;98.68;97831.63;4905316;29;20481;-82
2021/08/07 16:38:38;;;;;;;3.55;2.00;;;;;;;16.36;97.32;97831.84;4905726;29;20024;-77
2021/08/07 16:41:04;;;;;;;4.78;2.05;;;;;;;16.35;95.58;97828.38;4903125;29;21292;-75
2021/08/07 16:43:31;;;;;;;5.22;2.30;;;;;;;16.14;98.05;97843.47;4901735;29;20174;-73
2021/08/07 16:45:56;;;;;;;2.30;1.98;;;;;;;16.15;96.22;97839.13;4900501;29;20055;-72
2021/08/07 16:48:21;;;;;;;1.80;1.60;;;;;;;16.10;96.37;97847.22;4902714;29;20115;-72
2021/08/07 16:50:47;;;;;;;3.92;1.65;;;;;;;16.18;95.02;97845.00;4900625;29;20134;-72
2021/08/07 16:53:13;;;;;;;1.65;1.55;;;;;;;16.05;90.20;97836.16;4902612;29;20141;-73
2021/08/07 16:55:39;;;;;;;1.40;1.30;;;;;;;16.12;91.08;97850.56;4896752;29;20052;-72
2021/08/07 16:58:05;;;;;;;4.35;1.58;;;;;;;16.28;96.50;97845.31;4893402;29;20103;-72
2021/08/07 17:00:30;;;;;;;2.88;1.40;;;;;;;16.22;93.84;97840.44;4892372;29;20505;-72
2021/08/07 17:02:56;;;;;;;1.30;1.20;;;;;;;16.07;94.39;97839.53;4893668;29;20082;-72
2021/08/07 17:05:21;;;;;;;1.60;1.50;;;;;;;16.08;96.73;97854.28;4890926;29;20039;-72
2021/08/07 17:07:46;;;;;;;2.05;1.70;;;;;;;16.09;95.09;97839.44;4890967;29;20056;-72
2021/08/07 17:10:12;;;;;;;3.20;2.15;;;;;;;16.32;95.76;97851.22;4891377;29;20040;-72
2021/08/07 17:12:38;;;;;;;2.40;1.52;;;;;;;16.35;94.59;97849.28;4890917;29;20024;-72
2021/08/07 17:15:05;;;;;;;2.30;1.40;;;;;;;16.24;92.83;97850.81;4879407;29;20033;-72
2021/08/07 17:17:30;;;;;;;1.33;1.20;;;;;;;16.12;91.10;97834.88;4876726;29;20122;-73
2021/08/07 17:19:56;;;;;;;3.25;1.60;;;;;;;16.34;92.85;97828.44;4870910;29;20044;-73
2021/08/07 17:22:22;;;;;;;2.13;1.70;;;;;;;16.30;93.48;97847.88;4873453;29;20036;-73
2021/08/07 17:24:48;;;;;;;1.80;1.50;;;;;;;16.02;94.67;97836.31;4873425;29;20043;-73
2021/08/07 17:27:14;;;;;;;1.88;1.42;;;;;;;16.04;93.27;97855.38;4890634;29;20782;-73
2021/08/07 17:29:40;;;;;;;3.13;2.20;;;;;;;16.01;95.29;97857.31;4890338;29;20024;-73
2021/08/07 17:32:05;;;;;;;4.00;2.38;;;;;;;16.03;93.77;97864.13;4889162;29;20032;-73
2021/08/07 17:34:34;;;;;;;4.10;2.13;;;;;;;16.08;93.38;97866.50;4878355;29;20558;-73
2021/08/07 17:36:59;;;;;;;1.63;1.20;;;;;;;16.11;86.94;97859.34;4886975;29;20036;-73
2021/08/07 17:39:25;;;;;;;1.30;1.20;;;;;;;16.07;88.64;97836.06;4865098;29;20035;-75
2021/08/07 17:41:50;;;;;;;1.70;1.60;;;;;;;16.14;93.60;97833.03;4867992;29;20035;-75
2021/08/07 17:44:16;;;;;;;2.42;1.00;;;;;;;16.20;86.24;97831.84;4860926;29;20470;-75
2021/08/07 17:46:43;;;;;;;1.65;1.15;;;;;;;16.24;88.68;97837.75;4865749;29;20032;-75
2021/08/07 17:49:10;;;;;;;4.03;1.80;;;;;;;16.02;90.12;97843.31;4862364;29;20048;-75
2021/08/07 17:51:37;;;;;;;1.65;1.20;;;;;;;16.12;88.57;97837.50;4840169;29;20113;-75
2021/08/07 17:54:02;;;;;;;1.50;1.40;;;;;;;16.02;92.78;97846.78;4839220;29;20307;-76
2021/08/07 17:56:28;;;;;;;3.58;1.40;;;;;;;15.86;90.99;97849.41;4817587;29;20084;-75
2021/08/07 17:58:53;;;;;;;1.48;0.90;;;;;;;15.96;92.24;97852.34;4822759;29;25027;-74
2021/08/07 18:01:20;;;;;;;4.78;1.00;;;;;;;15.89;92.67;97848.38;4819847;29;20446;-74
2021/08/07 18:03:47;;;;;;;2.47;1.35;;;;;;;16.04;88.60;97834.47;4814113;29;20730;-75
2021/08/07 18:06:14;;;;;;;2.05;1.38;;;;;;;16.14;91.17;97833.03;4833972;29;20024;-76
2021/08/07 18:08:39;;;;;;;3.63;0.93;;;;;;;16.23;90.43;97851.75;4811915;29;20323;-74
2021/08/07 18:11:11;;;;;;;1.55;0.90;;;;;;;16.47;87.76;97860.81;4788141;29;20146;-74
2021/08/07 18:13:36;;;;;;;2.55;1.00;;;;;;;16.46;86.28;97853.91;4797285;29;20032;-74
2021/08/07 18:16:01;;;;;;;1.67;0.85;;;;;;;16.53;85.80;97843.94;4804708;29;20036;-74
2021/08/07 18:18:27;;;;;;;2.45;0.80;;;;;;;16.51;86.85;97861.50;4779248;29;20065;-75
2021/08/07 18:20:52;;;;;;;3.60;0.95;;;;;;;16.45;89.59;97873.16;4816969;29;21185;-74
2021/08/07 18:23:17;;;;;;;2.45;1.10;;;;;;;16.53;86.56;97881.38;4790337;29;20028;-71
2021/08/07 18:25:43;;;;;;;3.20;0.88;;;;;;;16.57;89.00;97890.75;4822218;29;20040;-76
2021/08/07 18:28:08;;;;;;;1.30;0.80;;;;;;;16.58;86.01;97899.44;4813518;29;20104;-75
2021/08/07 18:30:34;;;;;;;1.05;0.68;;;;;;;16.53;87.09;97902.31;4804146;29;20039;-75
2021/08/07 18:33:00;;;;;;;1.48;1.02;;;;;;;16.56;84.96;97907.38;4766592;29;20028;-72
2021/08/07 18:35:25;;;;;;;1.60;0.85;;;;;;;16.56;86.94;97906.53;4763044;29;20032;-76